sensor_id;sensor_type;location;lat;lon;timestamp;pressure;altitude;pressure_sealevel;temperature;humidity
63204;BME280;49297;43.210;27.914;2024-02-26T00:00:04;101059.69;;;9.87;72.88
63204;BME280;49297;43.210;27.914;2024-02-26T00:02:35;101061.50;;;9.87;72.30
63204;BME280;49297;43.210;27.914;2024-02-26T00:05:06;101066.78;;;9.87;72.48
63204;BME280;49297;43.210;27.914;2024-02-26T00:07:32;101056.22;;;9.87;72.29
63204;BME280;49297;43.210;27.914;2024-02-26T00:09:57;101055.50;;;9.85;72.00
63204;BME280;49297;43.210;27.914;2024-02-26T00:12:23;101048.53;;;9.84;71.97
63204;BME280;49297;43.210;27.914;2024-02-26T00:14:48;101044.09;;;9.84;72.05
63204;BME280;49297;43.210;27.914;2024-02-26T00:17:16;101044.94;;;9.85;72.60
63204;BME280;49297;43.210;27.914;2024-02-26T00:19:42;101042.41;;;9.83;71.82
63204;BME280;49297;43.210;27.914;2024-02-26T00:22:07;101043.38;;;9.82;71.58
63204;BME280;49297;43.210;27.914;2024-02-26T00:24:34;101044.22;;;9.83;72.09
63204;BME280;49297;43.210;27.914;2024-02-26T00:27:00;101037.13;;;9.83;71.57
63204;BME280;49297;43.210;27.914;2024-02-26T00:29:25;101032.66;;;9.84;72.03
63204;BME280;49297;43.210;27.914;2024-02-26T00:31:51;101030.16;;;9.82;72.00
63204;BME280;49297;43.210;27.914;2024-02-26T00:34:16;101034.47;;;9.83;71.69
63204;BME280;49297;43.210;27.914;2024-02-26T00:36:43;101031.22;;;9.80;71.44
63204;BME280;49297;43.210;27.914;2024-02-26T00:39:09;101035.56;;;9.81;71.49
63204;BME280;49297;43.210;27.914;2024-02-26T00:41:38;101026.66;;;9.82;71.14
63204;BME280;49297;43.210;27.914;2024-02-26T00:44:05;101022.22;;;9.82;71.50
63204;BME280;49297;43.210;27.914;2024-02-26T00:46:31;101020.41;;;9.83;71.76
63204;BME280;49297;43.210;27.914;2024-02-26T00:48:58;101020.41;;;9.83;71.55
63204;BME280;49297;43.210;27.914;2024-02-26T00:51:23;101022.22;;;9.82;70.96
63204;BME280;49297;43.210;27.914;2024-02-26T00:53:49;101018.72;;;9.82;70.75
63204;BME280;49297;43.210;27.914;2024-02-26T00:58:43;101017.19;;;9.79;71.12
63204;BME280;49297;43.210;27.914;2024-02-26T01:01:09;101013.81;;;9.77;71.49
63204;BME280;49297;43.210;27.914;2024-02-26T01:03:35;101005.91;;;9.77;70.74
63204;BME280;49297;43.210;27.914;2024-02-26T01:06:00;101006.00;;;9.76;70.82
63204;BME280;49297;43.210;27.914;2024-02-26T01:08:26;101002.53;;;9.75;70.92
63204;BME280;49297;43.210;27.914;2024-02-26T01:10:54;100999.03;;;9.75;71.03
63204;BME280;49297;43.210;27.914;2024-02-26T01:13:20;101001.81;;;9.73;70.81
63204;BME280;49297;43.210;27.914;2024-02-26T01:15:46;100999.16;;;9.73;71.64
63204;BME280;49297;43.210;27.914;2024-02-26T01:18:12;100994.84;;;9.72;70.85
63204;BME280;49297;43.210;27.914;2024-02-26T01:23:29;100993.28;;;9.69;71.74
63204;BME280;49297;43.210;27.914;2024-02-26T01:25:56;101001.22;;;9.69;71.58
63204;BME280;49297;43.210;27.914;2024-02-26T01:28:21;100993.28;;;9.69;71.54
63204;BME280;49297;43.210;27.914;2024-02-26T01:30:47;100998.72;;;9.68;71.38
63204;BME280;49297;43.210;27.914;2024-02-26T01:33:13;100999.66;;;9.67;71.76
63204;BME280;49297;43.210;27.914;2024-02-26T01:35:38;101002.31;;;9.67;71.60
63204;BME280;49297;43.210;27.914;2024-02-26T01:38:04;101000.78;;;9.64;71.65
63204;BME280;49297;43.210;27.914;2024-02-26T01:40:31;100999.06;;;9.63;71.56
63204;BME280;49297;43.210;27.914;2024-02-26T01:42:56;100994.91;;;9.61;71.71
63204;BME280;49297;43.210;27.914;2024-02-26T01:45:22;101000.31;;;9.59;72.48
63204;BME280;49297;43.210;27.914;2024-02-26T01:48:03;100997.91;;;9.56;72.16
63204;BME280;49297;43.210;27.914;2024-02-26T01:50:29;101002.47;;;9.54;72.56
63204;BME280;49297;43.210;27.914;2024-02-26T01:52:55;101008.81;;;9.51;72.71
63204;BME280;49297;43.210;27.914;2024-02-26T01:55:22;101008.13;;;9.49;72.76
63204;BME280;49297;43.210;27.914;2024-02-26T01:57:49;101013.53;;;9.48;72.64
63204;BME280;49297;43.210;27.914;2024-02-26T02:00:17;101006.56;;;9.47;73.04
63204;BME280;49297;43.210;27.914;2024-02-26T02:02:43;101004.63;;;9.49;73.52
63204;BME280;49297;43.210;27.914;2024-02-26T02:05:12;101012.56;;;9.49;73.42
63204;BME280;49297;43.210;27.914;2024-02-26T02:07:38;101007.53;;;9.46;73.79
63204;BME280;49297;43.210;27.914;2024-02-26T02:10:04;101008.34;;;9.46;74.13
63204;BME280;49297;43.210;27.914;2024-02-26T02:12:31;101017.84;;;9.49;74.79
63204;BME280;49297;43.210;27.914;2024-02-26T02:14:58;101010.75;;;9.49;74.36
63204;BME280;49297;43.210;27.914;2024-02-26T02:17:25;101003.66;;;9.50;74.94
63204;BME280;49297;43.210;27.914;2024-02-26T02:19:51;101007.88;;;9.52;75.31
63204;BME280;49297;43.210;27.914;2024-02-26T02:22:16;100996.47;;;9.52;75.14
63204;BME280;49297;43.210;27.914;2024-02-26T02:24:43;101002.47;;;9.54;74.76
63204;BME280;49297;43.210;27.914;2024-02-26T02:27:08;101001.50;;;9.55;75.27
63204;BME280;49297;43.210;27.914;2024-02-26T02:29:34;101005.72;;;9.58;75.20
63204;BME280;49297;43.210;27.914;2024-02-26T02:32:01;100991.50;;;9.59;75.48
63204;BME280;49297;43.210;27.914;2024-02-26T02:34:30;100996.78;;;9.59;75.17
63204;BME280;49297;43.210;27.914;2024-02-26T02:36:58;100998.50;;;9.60;75.34
63204;BME280;49297;43.210;27.914;2024-02-26T02:39:23;101000.19;;;9.61;74.78
63204;BME280;49297;43.210;27.914;2024-02-26T02:41:49;100997.53;;;9.61;74.97
63204;BME280;49297;43.210;27.914;2024-02-26T02:44:15;100997.38;;;9.62;74.95
63204;BME280;49297;43.210;27.914;2024-02-26T02:46:40;100996.56;;;9.62;75.38
63204;BME280;49297;43.210;27.914;2024-02-26T02:49:09;101002.69;;;9.62;74.98
63204;BME280;49297;43.210;27.914;2024-02-26T02:51:39;101006.31;;;9.61;74.65
63204;BME280;49297;43.210;27.914;2024-02-26T02:54:05;101001.13;;;9.60;74.65
63204;BME280;49297;43.210;27.914;2024-02-26T02:56:30;100995.00;;;9.59;74.58
63204;BME280;49297;43.210;27.914;2024-02-26T02:58:56;101005.59;;;9.59;74.79
63204;BME280;49297;43.210;27.914;2024-02-26T03:01:23;101003.91;;;9.58;74.79
63204;BME280;49297;43.210;27.914;2024-02-26T03:03:49;101001.25;;;9.58;74.34
63204;BME280;49297;43.210;27.914;2024-02-26T03:06:15;101005.00;;;9.56;74.78
63204;BME280;49297;43.210;27.914;2024-02-26T03:08:41;100999.81;;;9.54;75.05
63204;BME280;49297;43.210;27.914;2024-02-26T03:11:07;101001.59;;;9.53;74.33
63204;BME280;49297;43.210;27.914;2024-02-26T03:13:32;101007.88;;;9.52;74.91
63204;BME280;49297;43.210;27.914;2024-02-26T03:16:04;101009.81;;;9.50;74.75
63204;BME280;49297;43.210;27.914;2024-02-26T03:18:30;101001.88;;;9.50;74.48
63204;BME280;49297;43.210;27.914;2024-02-26T03:20:57;101008.94;;;9.50;74.41
63204;BME280;49297;43.210;27.914;2024-02-26T03:23:23;101010.75;;;9.49;75.27
63204;BME280;49297;43.210;27.914;2024-02-26T03:25:48;101011.84;;;9.47;75.23
63204;BME280;49297;43.210;27.914;2024-02-26T03:28:14;101008.34;;;9.46;75.07
63204;BME280;49297;43.210;27.914;2024-02-26T03:30:39;101003.22;;;9.45;75.06
63204;BME280;49297;43.210;27.914;2024-02-26T03:33:05;101008.63;;;9.43;75.46
63204;BME280;49297;43.210;27.914;2024-02-26T03:35:30;101003.34;;;9.43;75.05
63204;BME280;49297;43.210;27.914;2024-02-26T03:37:57;101009.56;;;9.42;75.57
63204;BME280;49297;43.210;27.914;2024-02-26T03:40:23;101005.13;;;9.43;75.69
63204;BME280;49297;43.210;27.914;2024-02-26T03:42:49;101005.28;;;9.41;75.72
63204;BME280;49297;43.210;27.914;2024-02-26T03:45:15;101006.09;;;9.42;75.70
63204;BME280;49297;43.210;27.914;2024-02-26T03:47:41;101010.56;;;9.41;76.42
63204;BME280;49297;43.210;27.914;2024-02-26T03:50:07;101008.75;;;9.42;76.35
63204;BME280;49297;43.210;27.914;2024-02-26T03:55:04;101010.78;;;9.38;76.43
63204;BME280;49297;43.210;27.914;2024-02-26T03:57:29;101015.09;;;9.39;76.95
63204;BME280;49297;43.210;27.914;2024-02-26T03:59:55;101008.97;;;9.39;76.77
63204;BME280;49297;43.210;27.914;2024-02-26T04:02:21;101008.97;;;9.39;77.09
63204;BME280;49297;43.210;27.914;2024-02-26T04:04:48;101017.75;;;9.39;77.01
63204;BME280;49297;43.210;27.914;2024-02-26T04:07:15;101012.34;;;9.41;77.06
63204;BME280;49297;43.210;27.914;2024-02-26T04:09:44;101001.88;;;9.39;77.24
63204;BME280;49297;43.210;27.914;2024-02-26T04:12:09;101010.66;;;9.40;77.45
63204;BME280;49297;43.210;27.914;2024-02-26T04:14:35;101010.66;;;9.40;77.89
63204;BME280;49297;43.210;27.914;2024-02-26T04:17:01;101013.19;;;9.41;77.77
63204;BME280;49297;43.210;27.914;2024-02-26T04:19:28;101011.03;;;9.35;77.60
63204;BME280;49297;43.210;27.914;2024-02-26T04:21:55;101016.19;;;9.37;77.99
63204;BME280;49297;43.210;27.914;2024-02-26T04:24:28;101009.22;;;9.36;78.51
63204;BME280;49297;43.210;27.914;2024-02-26T04:26:53;101008.38;;;9.35;78.64
63204;BME280;49297;43.210;27.914;2024-02-26T04:29:26;101005.75;;;9.35;78.67
63204;BME280;49297;43.210;27.914;2024-02-26T04:31:52;101007.44;;;9.36;78.41
63204;BME280;49297;43.210;27.914;2024-02-26T04:34:20;100994.22;;;9.36;78.83
63204;BME280;49297;43.210;27.914;2024-02-26T04:36:47;100996.88;;;9.36;78.67
63204;BME280;49297;43.210;27.914;2024-02-26T04:39:14;101004.69;;;9.38;78.85
63204;BME280;49297;43.210;27.914;2024-02-26T04:41:40;100999.38;;;9.38;78.65
63204;BME280;49297;43.210;27.914;2024-02-26T04:44:05;101004.78;;;9.36;78.68
63204;BME280;49297;43.210;27.914;2024-02-26T04:46:31;101005.63;;;9.37;78.77
63204;BME280;49297;43.210;27.914;2024-02-26T04:48:56;101001.16;;;9.37;78.62
63204;BME280;49297;43.210;27.914;2024-02-26T04:51:22;101003.56;;;9.40;78.98
63204;BME280;49297;43.210;27.914;2024-02-26T04:53:53;101003.56;;;9.40;79.16
63204;BME280;49297;43.210;27.914;2024-02-26T04:56:20;101003.69;;;9.39;79.15
63204;BME280;49297;43.210;27.914;2024-02-26T05:01:42;101002.75;;;9.40;79.26
63204;BME280;49297;43.210;27.914;2024-02-26T05:04:09;100999.13;;;9.41;78.60
63204;BME280;49297;43.210;27.914;2024-02-26T05:06:36;100995.53;;;9.42;79.40
63204;BME280;49297;43.210;27.914;2024-02-26T05:09:02;101010.41;;;9.43;79.57
63204;BME280;49297;43.210;27.914;2024-02-26T05:11:31;101010.28;;;9.44;79.48
63204;BME280;49297;43.210;27.914;2024-02-26T05:13:56;101011.84;;;9.47;79.48
63204;BME280;49297;43.210;27.914;2024-02-26T05:16:30;101006.56;;;9.47;79.55
63204;BME280;49297;43.210;27.914;2024-02-26T05:18:56;100999.34;;;9.49;79.31
63204;BME280;49297;43.210;27.914;2024-02-26T05:21:22;101009.34;;;9.45;79.88
63204;BME280;49297;43.210;27.914;2024-02-26T05:23:48;101012.56;;;9.49;79.49
63204;BME280;49297;43.210;27.914;2024-02-26T05:26:22;101019.41;;;9.51;79.85
63204;BME280;49297;43.210;27.914;2024-02-26T05:28:48;101023.75;;;9.52;79.17
63204;BME280;49297;43.210;27.914;2024-02-26T05:31:16;101021.56;;;9.58;79.23
63204;BME280;49297;43.210;27.914;2024-02-26T05:33:42;101018.81;;;9.59;79.20
63204;BME280;49297;43.210;27.914;2024-02-26T05:36:07;101033.69;;;9.60;79.50
63204;BME280;49297;43.210;27.914;2024-02-26T05:38:34;101025.50;;;9.63;79.59
63204;BME280;49297;43.210;27.914;2024-02-26T05:40:59;101034.03;;;9.67;79.58
63204;BME280;49297;43.210;27.914;2024-02-26T05:43:25;101035.47;;;9.71;79.52
63204;BME280;49297;43.210;27.914;2024-02-26T05:45:51;101047.50;;;9.75;79.12
63204;BME280;49297;43.210;27.914;2024-02-26T05:48:17;101050.84;;;9.77;79.43
63204;BME280;49297;43.210;27.914;2024-02-26T05:50:47;101057.56;;;9.81;79.31
63204;BME280;49297;43.210;27.914;2024-02-26T05:53:13;101056.34;;;9.85;79.75
63204;BME280;49297;43.210;27.914;2024-02-26T05:55:38;101061.38;;;9.88;79.38
63204;BME280;49297;43.210;27.914;2024-02-26T05:58:04;101053.09;;;9.93;79.63
63204;BME280;49297;43.210;27.914;2024-02-26T06:00:31;101057.41;;;9.94;79.13
63204;BME280;49297;43.210;27.914;2024-02-26T06:02:56;101062.44;;;9.97;79.41
63204;BME280;49297;43.210;27.914;2024-02-26T06:05:23;101058.69;;;10.00;79.12
63204;BME280;49297;43.210;27.914;2024-02-26T06:07:49;101059.16;;;10.05;79.39
63204;BME280;49297;43.210;27.914;2024-02-26T06:10:16;101058.56;;;10.13;79.22
63204;BME280;49297;43.210;27.914;2024-02-26T06:12:42;101055.38;;;10.19;79.00
63204;BME280;49297;43.210;27.914;2024-02-26T06:15:08;101058.38;;;10.25;79.43
63204;BME280;49297;43.210;27.914;2024-02-26T06:17:36;101054.88;;;10.36;79.25
63204;BME280;49297;43.210;27.914;2024-02-26T06:20:02;101050.50;;;10.46;78.89
63204;BME280;49297;43.210;27.914;2024-02-26T06:22:29;101058.47;;;10.56;79.15
63204;BME280;49297;43.210;27.914;2024-02-26T06:24:55;101051.69;;;10.63;79.06
63204;BME280;49297;43.210;27.914;2024-02-26T06:27:21;101059.66;;;10.63;78.64
63204;BME280;49297;43.210;27.914;2024-02-26T06:29:48;101050.78;;;10.53;78.35
63204;BME280;49297;43.210;27.914;2024-02-26T06:32:14;101051.91;;;10.51;78.30
63204;BME280;49297;43.210;27.914;2024-02-26T06:34:43;101051.44;;;10.45;78.62
63204;BME280;49297;43.210;27.914;2024-02-26T06:37:08;101054.53;;;10.51;78.48
63204;BME280;49297;43.210;27.914;2024-02-26T06:39:34;101060.09;;;10.47;78.31
63204;BME280;49297;43.210;27.914;2024-02-26T06:42:00;101059.00;;;10.50;78.87
63204;BME280;49297;43.210;27.914;2024-02-26T06:44:29;101060.28;;;10.56;78.91
63204;BME280;49297;43.210;27.914;2024-02-26T06:46:59;101065.78;;;10.64;78.78
63204;BME280;49297;43.210;27.914;2024-02-26T06:49:25;101071.53;;;10.69;78.72
63204;BME280;49297;43.210;27.914;2024-02-26T06:54:27;101071.00;;;10.75;78.55
63204;BME280;49297;43.210;27.914;2024-02-26T06:56:53;101071.31;;;10.82;78.22
63204;BME280;49297;43.210;27.914;2024-02-26T06:59:20;101064.69;;;10.88;78.52
63204;BME280;49297;43.210;27.914;2024-02-26T07:01:46;101066.22;;;10.90;78.28
63204;BME280;49297;43.210;27.914;2024-02-26T07:04:12;101070.44;;;10.93;78.25
63204;BME280;49297;43.210;27.914;2024-02-26T07:06:37;101071.56;;;11.00;77.85
63204;BME280;49297;43.210;27.914;2024-02-26T07:09:03;101064.91;;;11.05;77.80
63204;BME280;49297;43.210;27.914;2024-02-26T07:11:29;101065.34;;;11.11;77.77
63204;BME280;49297;43.210;27.914;2024-02-26T07:13:54;101062.16;;;11.17;77.27
63204;BME280;49297;43.210;27.914;2024-02-26T07:16:20;101059.75;;;11.14;77.58
63204;BME280;49297;43.210;27.914;2024-02-26T07:18:46;101061.72;;;11.12;77.32
63204;BME280;49297;43.210;27.914;2024-02-26T07:21:11;101062.53;;;11.12;76.95
63204;BME280;49297;43.210;27.914;2024-02-26T07:23:39;101057.97;;;11.14;76.88
63204;BME280;49297;43.210;27.914;2024-02-26T07:26:05;101057.31;;;11.22;77.22
63204;BME280;49297;43.210;27.914;2024-02-26T07:28:31;101053.53;;;11.24;76.81
63204;BME280;49297;43.210;27.914;2024-02-26T07:30:56;101062.59;;;11.22;76.39
63204;BME280;49297;43.210;27.914;2024-02-26T07:33:23;101063.44;;;11.22;76.43
63204;BME280;49297;43.210;27.914;2024-02-26T07:35:48;101063.31;;;11.24;76.18
63204;BME280;49297;43.210;27.914;2024-02-26T07:38:14;101060.66;;;11.24;76.19
63204;BME280;49297;43.210;27.914;2024-02-26T07:40:39;101071.25;;;11.24;76.13
63204;BME280;49297;43.210;27.914;2024-02-26T07:43:05;101068.72;;;11.22;75.92
63204;BME280;49297;43.210;27.914;2024-02-26T07:45:31;101057.88;;;11.26;75.77
63204;BME280;49297;43.210;27.914;2024-02-26T07:47:56;101059.16;;;11.31;75.70
63204;BME280;49297;43.210;27.914;2024-02-26T07:50:22;101059.59;;;11.36;75.85
63204;BME280;49297;43.210;27.914;2024-02-26T07:52:47;101071.88;;;11.37;75.52
63204;BME280;49297;43.210;27.914;2024-02-26T07:57:44;101063.63;;;11.40;75.17
63204;BME280;49297;43.210;27.914;2024-02-26T08:00:10;101064.75;;;11.38;74.79
63204;BME280;49297;43.210;27.914;2024-02-26T08:02:43;101060.41;;;11.37;74.73
63204;BME280;49297;43.210;27.914;2024-02-26T08:05:09;101069.34;;;11.36;74.43
63204;BME280;49297;43.210;27.914;2024-02-26T08:07:36;101067.53;;;11.36;74.05
63204;BME280;49297;43.210;27.914;2024-02-26T08:10:03;101066.41;;;11.39;74.26
63204;BME280;49297;43.210;27.914;2024-02-26T08:12:32;101073.97;;;11.43;74.38
63204;BME280;49297;43.210;27.914;2024-02-26T08:14:58;101068.41;;;11.47;74.17
63204;BME280;49297;43.210;27.914;2024-02-26T08:17:24;101072.59;;;11.49;74.03
63204;BME280;49297;43.210;27.914;2024-02-26T08:19:50;101072.47;;;11.51;73.65
63204;BME280;49297;43.210;27.914;2024-02-26T08:22:15;101069.81;;;11.51;73.61
63204;BME280;49297;43.210;27.914;2024-02-26T08:24:42;101072.22;;;11.54;73.62
63204;BME280;49297;43.210;27.914;2024-02-26T08:27:08;101066.91;;;11.54;73.45
63204;BME280;49297;43.210;27.914;2024-02-26T08:29:33;101071.09;;;11.56;73.50
63204;BME280;49297;43.210;27.914;2024-02-26T08:32:00;101071.75;;;11.49;73.20
63204;BME280;49297;43.210;27.914;2024-02-26T08:34:26;101075.25;;;11.49;73.21
63204;BME280;49297;43.210;27.914;2024-02-26T08:36:54;101079.97;;;11.46;73.48
63204;BME280;49297;43.210;27.914;2024-02-26T08:39:20;101078.19;;;11.46;73.47
63204;BME280;49297;43.210;27.914;2024-02-26T08:41:46;101074.09;;;11.42;73.36
63204;BME280;49297;43.210;27.914;2024-02-26T08:44:12;101072.28;;;11.42;73.64
63204;BME280;49297;43.210;27.914;2024-02-26T08:46:37;101084.06;;;11.50;73.69
63204;BME280;49297;43.210;27.914;2024-02-26T08:49:11;101084.22;;;11.58;73.51
63204;BME280;49297;43.210;27.914;2024-02-26T08:51:42;101087.44;;;11.61;73.15
63204;BME280;49297;43.210;27.914;2024-02-26T08:54:09;101079.34;;;11.63;73.28
63204;BME280;49297;43.210;27.914;2024-02-26T08:56:35;101087.59;;;11.70;73.12
63204;BME280;49297;43.210;27.914;2024-02-26T08:59:03;101095.25;;;11.73;72.82
63204;BME280;49297;43.210;27.914;2024-02-26T09:01:30;101089.25;;;11.71;72.70
63204;BME280;49297;43.210;27.914;2024-02-26T09:03:57;101094.56;;;11.71;72.61
63204;BME280;49297;43.210;27.914;2024-02-26T09:06:27;101094.69;;;11.69;72.37
63204;BME280;49297;43.210;27.914;2024-02-26T09:08:59;101097.91;;;11.73;72.12
63204;BME280;49297;43.210;27.914;2024-02-26T09:11:24;101084.25;;;11.77;72.18
63204;BME280;49297;43.210;27.914;2024-02-26T09:13:50;101089.16;;;11.82;71.89
63204;BME280;49297;43.210;27.914;2024-02-26T09:16:15;101086.09;;;11.87;71.79
63204;BME280;49297;43.210;27.914;2024-02-26T09:18:41;101088.38;;;11.91;71.81
63204;BME280;49297;43.210;27.914;2024-02-26T09:21:06;101090.91;;;11.93;71.73
63204;BME280;49297;43.210;27.914;2024-02-26T09:23:32;101087.13;;;11.95;71.50
63204;BME280;49297;43.210;27.914;2024-02-26T09:25:58;101091.84;;;11.92;71.61
63204;BME280;49297;43.210;27.914;2024-02-26T09:28:24;101082.63;;;11.96;71.47
63204;BME280;49297;43.210;27.914;2024-02-26T09:30:49;101087.53;;;12.00;71.45
63204;BME280;49297;43.210;27.914;2024-02-26T09:33:16;101090.22;;;12.10;71.27
63204;BME280;49297;43.210;27.914;2024-02-26T09:35:43;101088.28;;;12.12;70.85
63204;BME280;49297;43.210;27.914;2024-02-26T09:38:09;101088.81;;;11.96;70.71
63204;BME280;49297;43.210;27.914;2024-02-26T09:40:35;101092.56;;;11.94;70.97
63204;BME280;49297;43.210;27.914;2024-02-26T09:43:02;101090.03;;;11.92;71.03
63204;BME280;49297;43.210;27.914;2024-02-26T09:45:30;101074.66;;;11.86;71.02
63204;BME280;49297;43.210;27.914;2024-02-26T09:47:58;101085.97;;;11.88;70.98
63204;BME280;49297;43.210;27.914;2024-02-26T09:50:24;101088.25;;;11.93;71.21
63204;BME280;49297;43.210;27.914;2024-02-26T09:52:50;101084.13;;;11.89;70.67
63204;BME280;49297;43.210;27.914;2024-02-26T09:55:16;101071.81;;;11.78;70.47
63204;BME280;49297;43.210;27.914;2024-02-26T09:57:44;101072.25;;;11.73;70.94
63204;BME280;49297;43.210;27.914;2024-02-26T10:00:10;101067.91;;;11.72;71.05
63204;BME280;49297;43.210;27.914;2024-02-26T10:02:39;101068.47;;;11.76;71.25
63204;BME280;49297;43.210;27.914;2024-02-26T10:05:10;101075.47;;;11.77;71.19
63204;BME280;49297;43.210;27.914;2024-02-26T10:07:38;101065.00;;;11.75;71.12
63204;BME280;49297;43.210;27.914;2024-02-26T10:10:04;101070.31;;;11.75;71.07
63204;BME280;49297;43.210;27.914;2024-02-26T10:12:30;101070.44;;;11.74;71.20
63204;BME280;49297;43.210;27.914;2024-02-26T10:17:32;101064.88;;;11.77;71.03
63204;BME280;49297;43.210;27.914;2024-02-26T10:20:17;101065.41;;;11.71;70.90
63204;BME280;49297;43.210;27.914;2024-02-26T10:22:48;101052.44;;;11.68;71.08
63204;BME280;49297;43.210;27.914;2024-02-26T10:25:14;101051.31;;;11.70;71.48
63204;BME280;49297;43.210;27.914;2024-02-26T10:27:40;101055.09;;;11.77;71.11
63204;BME280;49297;43.210;27.914;2024-02-26T10:30:28;101058.03;;;11.84;70.86
63204;BME280;49297;43.210;27.914;2024-02-26T10:32:56;101047.16;;;11.87;70.85
63204;BME280;49297;43.210;27.914;2024-02-26T10:35:23;101045.34;;;11.88;70.54
63204;BME280;49297;43.210;27.914;2024-02-26T10:37:49;101045.50;;;11.96;70.77
63204;BME280;49297;43.210;27.914;2024-02-26T10:40:16;101046.22;;;12.08;70.56
63204;BME280;49297;43.210;27.914;2024-02-26T10:42:42;101035.31;;;12.11;70.27
63204;BME280;49297;43.210;27.914;2024-02-26T10:45:09;101032.97;;;12.17;70.25
63204;BME280;49297;43.210;27.914;2024-02-26T10:47:36;101037.81;;;12.22;70.20
63204;BME280;49297;43.210;27.914;2024-02-26T10:50:02;101026.91;;;12.35;69.96
63204;BME280;49297;43.210;27.914;2024-02-26T10:52:29;101025.78;;;12.47;69.82
63204;BME280;49297;43.210;27.914;2024-02-26T10:54:56;101022.44;;;12.45;69.02
63204;BME280;49297;43.210;27.914;2024-02-26T10:57:25;101020.06;;;12.42;68.94
63204;BME280;49297;43.210;27.914;2024-02-26T10:59:52;101021.19;;;12.40;68.60
63204;BME280;49297;43.210;27.914;2024-02-26T11:02:19;101020.59;;;12.46;68.94
63204;BME280;49297;43.210;27.914;2024-02-26T11:04:45;101017.25;;;12.53;68.29
63204;BME280;49297;43.210;27.914;2024-02-26T11:07:11;101005.53;;;12.46;67.43
63204;BME280;49297;43.210;27.914;2024-02-26T11:09:37;101005.13;;;12.41;67.95
63204;BME280;49297;43.210;27.914;2024-02-26T11:12:09;101011.09;;;12.53;68.22
63204;BME280;49297;43.210;27.914;2024-02-26T11:14:38;101010.66;;;12.57;67.72
63204;BME280;49297;43.210;27.914;2024-02-26T11:17:05;101004.53;;;12.57;67.39
63204;BME280;49297;43.210;27.914;2024-02-26T11:19:32;101009.84;;;12.47;67.45
63204;BME280;49297;43.210;27.914;2024-02-26T11:22:00;101003.97;;;12.44;67.65
63204;BME280;49297;43.210;27.914;2024-02-26T11:24:26;101014.03;;;12.50;67.94
63204;BME280;49297;43.210;27.914;2024-02-26T11:26:53;101008.00;;;12.57;67.90
63204;BME280;49297;43.210;27.914;2024-02-26T11:29:47;101009.38;;;12.62;67.60
63204;BME280;49297;43.210;27.914;2024-02-26T11:32:14;101005.31;;;12.67;67.06
63204;BME280;49297;43.210;27.914;2024-02-26T11:34:40;101010.50;;;12.69;66.79
63204;BME280;49297;43.210;27.914;2024-02-26T11:37:16;101011.63;;;12.66;66.74
63204;BME280;49297;43.210;27.914;2024-02-26T11:39:42;101009.53;;;12.70;66.60
63204;BME280;49297;43.210;27.914;2024-02-26T11:42:09;101009.38;;;12.71;66.14
63204;BME280;49297;43.210;27.914;2024-02-26T11:44:38;101007.13;;;12.76;66.43
63204;BME280;49297;43.210;27.914;2024-02-26T11:49:39;101013.31;;;13.05;65.81
63204;BME280;49297;43.210;27.914;2024-02-26T11:52:06;100999.31;;;13.03;65.88
63204;BME280;49297;43.210;27.914;2024-02-26T11:57:04;100996.44;;;13.24;64.97
63204;BME280;49297;43.210;27.914;2024-02-26T11:59:47;101004.53;;;13.32;65.26
63204;BME280;49297;43.210;27.914;2024-02-26T12:05:01;101001.78;;;13.51;64.45
63204;BME280;49297;43.210;27.914;2024-02-26T12:07:27;100991.00;;;13.53;64.18
63204;BME280;49297;43.210;27.914;2024-02-26T12:09:56;100988.53;;;13.60;63.60
63204;BME280;49297;43.210;27.914;2024-02-26T12:12:38;100984.75;;;13.62;63.35
63204;BME280;49297;43.210;27.914;2024-02-26T12:15:07;100992.81;;;13.70;63.20
63204;BME280;49297;43.210;27.914;2024-02-26T12:17:33;100987.25;;;14.00;63.38
63204;BME280;49297;43.210;27.914;2024-02-26T12:20:09;100995.53;;;14.15;61.82
63204;BME280;49297;43.210;27.914;2024-02-26T12:22:35;100989.28;;;14.06;61.85
63204;BME280;49297;43.210;27.914;2024-02-26T12:25:08;100987.78;;;14.21;62.00
63204;BME280;49297;43.210;27.914;2024-02-26T12:27:34;100991.81;;;14.52;61.64
63204;BME280;49297;43.210;27.914;2024-02-26T12:30:01;100990.63;;;14.72;60.99
63204;BME280;49297;43.210;27.914;2024-02-26T12:32:26;100991.72;;;14.88;60.24
63204;BME280;49297;43.210;27.914;2024-02-26T12:34:52;100986.59;;;15.02;59.73
63204;BME280;49297;43.210;27.914;2024-02-26T12:37:18;100990.22;;;15.28;59.63
63204;BME280;49297;43.210;27.914;2024-02-26T12:39:43;100978.25;;;15.48;58.69
63204;BME280;49297;43.210;27.914;2024-02-26T12:42:11;100985.31;;;15.66;58.31
63204;BME280;49297;43.210;27.914;2024-02-26T12:44:37;100988.03;;;15.82;57.18
63204;BME280;49297;43.210;27.914;2024-02-26T12:47:06;100991.88;;;15.88;55.78
63204;BME280;49297;43.210;27.914;2024-02-26T12:49:31;100976.63;;;15.64;56.56
63204;BME280;49297;43.210;27.914;2024-02-26T12:51:57;100996.44;;;15.45;57.00
63204;BME280;49297;43.210;27.914;2024-02-26T12:54:33;100980.09;;;15.56;57.41
63204;BME280;49297;43.210;27.914;2024-02-26T12:57:00;100985.03;;;15.85;56.56
63204;BME280;49297;43.210;27.914;2024-02-26T12:59:27;100985.38;;;15.90;56.35
63204;BME280;49297;43.210;27.914;2024-02-26T13:01:53;100991.72;;;15.81;55.58
63204;BME280;49297;43.210;27.914;2024-02-26T13:04:19;100989.00;;;15.73;56.08
63204;BME280;49297;43.210;27.914;2024-02-26T13:06:45;100993.16;;;15.67;56.68
63204;BME280;49297;43.210;27.914;2024-02-26T13:09:12;100998.34;;;15.77;56.51